Time;durP1;ratioP1;P1;durP2;ratioP2;P2;SDS_P1;SDS_P2;PMS_P1;PMS_P2;Temp;Humidity;BMP_temperature;BMP_pressure;BME280_temperature;BME280_humidity;BME280_pressure;Samples;Min_cycle;Max_cycle;Signal;HPM_P1;HPM_P2
2022/09/25 00:01:03;;;;;;;9.45;5.10;;;;;;;11.73;100.00;98565.00;4500917;31;20419;-83
2022/09/25 00:03:31;;;;;;;7.10;5.00;;;;;;;11.63;100.00;98557.22;4500698;31;20429;-83
2022/09/25 00:06:07;;;;;;;7.32;4.87;;;;;;;11.63;100.00;98554.59;4500911;31;20133;-83
2022/09/25 00:08:35;;;;;;;8.10;5.03;;;;;;;11.69;100.00;98551.38;4484690;31;20068;-84
2022/09/25 00:11:22;;;;;;;7.72;4.97;;;;;;;11.71;100.00;98554.66;4484877;31;20112;-84
2022/09/25 00:13:50;;;;;;;6.53;4.45;;;;;;;11.66;100.00;98551.66;4484756;31;20088;-84
2022/09/25 00:16:20;;;;;;;8.68;4.45;;;;;;;11.63;100.00;98549.34;4484768;31;20121;-83
2022/09/25 00:21:35;;;;;;;9.57;5.47;;;;;;;11.61;100.00;98545.19;4484587;31;20143;-84
2022/09/25 00:24:05;;;;;;;6.97;4.65;;;;;;;11.60;100.00;98544.38;4484695;31;20418;-83
2022/09/25 00:26:35;;;;;;;8.05;5.07;;;;;;;11.83;100.00;98533.44;4484281;31;20084;-84
2022/09/25 00:29:04;;;;;;;9.23;4.65;;;;;;;11.90;100.00;98535.31;4484513;31;20111;-84
2022/09/25 00:31:31;;;;;;;6.93;4.62;;;;;;;11.87;100.00;98540.88;4484233;31;20116;-83
2022/09/25 00:34:00;;;;;;;6.90;4.70;;;;;;;11.94;100.00;98530.59;4484476;31;20125;-83
2022/09/25 00:36:28;;;;;;;6.45;4.80;;;;;;;11.88;100.00;98532.03;4484236;31;20580;-84
2022/09/25 00:38:55;;;;;;;11.00;5.37;;;;;;;11.82;100.00;98535.22;4484082;31;20089;-84
2022/09/25 00:41:24;;;;;;;6.95;4.57;;;;;;;11.80;100.00;98531.94;4492703;31;20476;-84
2022/09/25 00:43:55;;;;;;;6.00;3.78;;;;;;;11.81;100.00;98532.75;4500355;31;20142;-84
2022/09/25 00:46:28;;;;;;;9.13;4.80;;;;;;;11.98;100.00;98536.38;4500593;31;20467;-84
2022/09/25 00:49:02;;;;;;;5.97;4.18;;;;;;;11.93;100.00;98531.59;4500223;31;20098;-84
2022/09/25 00:51:56;;;;;;;6.93;4.47;;;;;;;11.86;100.00;98526.09;4500473;31;20513;-84
2022/09/25 00:54:33;;;;;;;8.93;4.72;;;;;;;11.81;100.00;98525.72;4496402;31;20104;-84
2022/09/25 00:57:05;;;;;;;7.60;4.20;;;;;;;11.78;100.00;98526.03;4500001;31;20423;-84
2022/09/25 00:59:37;;;;;;;8.13;5.15;;;;;;;11.72;100.00;98529.25;4500077;31;20080;-84
2022/09/25 01:02:06;;;;;;;8.80;4.72;;;;;;;11.72;100.00;98527.44;4498974;31;20147;-83
2022/09/25 01:04:36;;;;;;;8.02;4.50;;;;;;;11.72;100.00;98531.88;4498836;31;20130;-84
2022/09/25 01:07:04;;;;;;;6.47;4.60;;;;;;;11.70;100.00;98526.78;4493326;31;20114;-83
2022/09/25 01:09:31;;;;;;;6.90;4.60;;;;;;;11.64;100.00;98526.53;4484217;32;20149;-83
2022/09/25 01:11:58;;;;;;;10.35;4.72;;;;;;;11.75;100.00;98515.84;4484147;31;20101;-83
2022/09/25 01:14:25;;;;;;;6.43;3.92;;;;;;;11.90;100.00;98518.75;4484288;31;20455;-83
2022/09/25 01:17:33;;;;;;;8.13;4.87;;;;;;;12.00;100.00;98513.44;4484312;31;20097;-83
2022/09/25 01:20:20;;;;;;;7.55;5.07;;;;;;;12.05;100.00;98519.88;4484178;31;20075;-83
2022/09/25 01:23:12;;;;;;;7.93;4.70;;;;;;;12.02;100.00;98521.97;4484096;31;20084;-83
2022/09/25 01:25:58;;;;;;;9.90;4.95;;;;;;;12.02;100.00;98521.97;4484165;31;20115;-82
2022/09/25 01:28:45;;;;;;;8.60;4.82;;;;;;;11.87;100.00;98526.94;4483647;32;20458;-83
2022/09/25 01:31:23;;;;;;;7.10;4.55;;;;;;;11.78;100.00;98528.66;4484673;31;20153;-82
2022/09/25 01:33:55;;;;;;;8.27;4.37;;;;;;;11.78;100.00;98522.56;4484366;32;20092;-83
2022/09/25 01:36:26;;;;;;;11.48;5.25;;;;;;;11.99;100.00;98524.91;4484304;32;20084;-82
2022/09/25 01:39:02;;;;;;;11.23;4.87;;;;;;;12.03;100.00;98523.63;4485762;31;20151;-83
2022/09/25 01:41:44;;;;;;;8.48;4.85;;;;;;;11.96;100.00;98512.91;4484490;32;20088;-82
2022/09/25 01:44:16;;;;;;;8.18;5.30;;;;;;;11.92;100.00;98515.97;4485598;31;20100;-83
2022/09/25 01:46:46;;;;;;;7.15;4.90;;;;;;;12.06;100.00;98513.63;4485945;31;20118;-83
2022/09/25 01:49:21;;;;;;;6.35;4.32;;;;;;;12.16;100.00;98516.19;4484463;32;20110;-83
2022/09/25 01:51:54;;;;;;;7.75;4.80;;;;;;;12.13;100.00;98520.91;4484496;32;20153;-83
2022/09/25 01:54:46;;;;;;;7.30;4.37;;;;;;;12.13;100.00;98519.09;4484231;32;20164;-83
2022/09/25 01:57:26;;;;;;;7.15;4.60;;;;;;;12.04;100.00;98514.78;4423640;32;20670;-82
2022/09/25 02:00:09;;;;;;;8.63;4.87;;;;;;;12.09;100.00;98514.31;4436110;32;20160;-84
2022/09/25 02:02:43;;;;;;;8.13;5.00;;;;;;;11.96;100.00;98514.69;4436576;32;20529;-83
2022/09/25 02:05:13;;;;;;;10.02;4.62;;;;;;;11.87;100.00;98501.50;4424153;32;20094;-82
2022/09/25 02:07:46;;;;;;;7.32;4.97;;;;;;;11.82;100.00;98506.34;4423918;32;20135;-82
2022/09/25 02:10:19;;;;;;;9.55;5.30;;;;;;;11.70;100.00;98500.53;4423736;32;20235;-83
2022/09/25 02:12:52;;;;;;;7.82;5.18;;;;;;;11.73;100.00;98502.00;4436335;32;20106;-83
2022/09/25 02:15:27;;;;;;;10.07;4.90;;;;;;;11.63;100.00;98502.09;4436326;32;20165;-83
2022/09/25 02:20:50;;;;;;;;;;;;;;;11.33;100.00;98517.22;4426269;32;20113;-83
2022/09/25 02:23:43;;;;;;;10.15;6.18;;;;;;;11.35;100.00;98510.06;4424176;32;19980;-83
2022/09/25 02:26:34;;;;;;;7.57;4.75;;;;;;;11.27;100.00;98523.06;4436484;32;20129;-83
2022/09/25 02:29:02;;;;;;;8.02;4.95;;;;;;;11.31;100.00;98523.56;4436353;32;20135;-83
2022/09/25 02:31:37;;;;;;;7.57;4.90;;;;;;;11.30;100.00;98519.34;4436027;32;20163;-83
2022/09/25 02:34:05;;;;;;;6.37;4.53;;;;;;;11.25;100.00;98513.69;4451711;31;20088;-84
2022/09/25 02:36:42;;;;;;;10.05;5.10;;;;;;;11.24;100.00;98514.69;4501243;31;20538;-83
2022/09/25 02:39:10;;;;;;;7.82;4.82;;;;;;;11.24;100.00;98518.12;4501280;31;20159;-84
2022/09/25 02:42:18;;;;;;;9.07;4.68;;;;;;;11.31;100.00;98513.09;4491144;31;20095;-84
2022/09/25 02:44:57;;;;;;;10.40;5.25;;;;;;;11.22;100.00;98519.22;4485401;32;20092;-84
2022/09/25 02:47:34;;;;;;;8.48;4.87;;;;;;;11.15;100.00;98513.75;4485318;32;20785;-84
2022/09/25 02:50:04;;;;;;;8.52;4.55;;;;;;;11.00;100.00;98516.03;4484130;32;20100;-83
2022/09/25 02:52:57;;;;;;;10.27;5.35;;;;;;;10.92;100.00;98513.34;4485363;32;20096;-83
2022/09/25 02:55:51;;;;;;;7.68;5.45;;;;;;;10.84;100.00;98511.44;4481351;32;20108;-83
2022/09/25 02:58:34;;;;;;;9.30;5.43;;;;;;;10.82;100.00;98503.72;4484024;32;20145;-84
2022/09/25 03:01:04;;;;;;;9.85;5.05;;;;;;;10.80;100.00;98503.03;4484970;32;20080;-84
2022/09/25 03:03:32;;;;;;;9.27;4.95;;;;;;;10.87;100.00;98505.06;4485375;32;20104;-83
2022/09/25 03:06:00;;;;;;;9.52;5.50;;;;;;;10.82;100.00;98502.88;4485087;32;20494;-83
2022/09/25 03:08:36;;;;;;;7.80;4.97;;;;;;;10.79;100.00;98501.38;4484004;32;20115;-84
2022/09/25 03:11:05;;;;;;;11.15;5.80;;;;;;;10.79;100.00;98498.75;4484042;32;20517;-83
2022/09/25 03:13:33;;;;;;;9.23;5.35;;;;;;;10.83;100.00;98499.31;4485192;31;20522;-83
2022/09/25 03:16:03;;;;;;;7.05;4.55;;;;;;;10.95;100.00;98495.50;4485071;31;20107;-83
2022/09/25 03:18:31;;;;;;;8.55;5.22;;;;;;;10.95;100.00;98492.87;4485254;31;20085;-83
2022/09/25 03:20:58;;;;;;;9.70;5.50;;;;;;;11.06;100.00;98494.47;4485005;31;20105;-83
2022/09/25 03:23:25;;;;;;;8.07;5.07;;;;;;;11.05;100.00;98487.59;4485217;31;20096;-83
2022/09/25 03:25:53;;;;;;;9.20;5.00;;;;;;;11.14;100.00;98481.47;4485054;31;20118;-83
2022/09/25 03:28:21;;;;;;;7.87;5.03;;;;;;;11.24;100.00;98485.84;4485156;31;20173;-83
2022/09/25 03:31:06;;;;;;;12.02;5.47;;;;;;;11.26;100.00;98487.31;4484846;31;20157;-83
2022/09/25 03:33:38;;;;;;;9.00;5.22;;;;;;;11.27;100.00;98488.16;4485250;32;20501;-83
2022/09/25 03:36:08;;;;;;;11.48;5.35;;;;;;;11.38;100.00;98490.56;4485049;31;20414;-84
2022/09/25 03:38:36;;;;;;;9.38;5.75;;;;;;;11.43;100.00;98488.31;4485323;31;20153;-84
2022/09/25 03:41:05;;;;;;;9.05;4.50;;;;;;;11.51;100.00;98480.53;4491070;31;20091;-83
2022/09/25 03:43:34;;;;;;;6.47;4.80;;;;;;;11.41;100.00;98492.06;4500715;31;20110;-83
2022/09/25 03:46:03;;;;;;;8.70;5.12;;;;;;;11.38;100.00;98495.78;4500659;31;20605;-83
2022/09/25 03:48:31;;;;;;;12.15;5.35;;;;;;;11.39;100.00;98499.25;4500657;31;20155;-83
2022/09/25 03:51:00;;;;;;;7.05;4.37;;;;;;;11.34;100.00;98503.16;4500551;31;20092;-84
2022/09/25 03:53:32;;;;;;;8.68;5.22;;;;;;;11.44;100.00;98507.50;4499655;31;20179;-83
2022/09/25 03:56:00;;;;;;;8.68;5.05;;;;;;;11.51;100.00;98508.56;4500652;31;20094;-83
2022/09/25 03:58:28;;;;;;;10.35;5.30;;;;;;;11.54;100.00;98516.94;4500531;31;20200;-84
2022/09/25 04:00:56;;;;;;;7.90;4.90;;;;;;;11.59;100.00;98513.06;4500536;31;20083;-83
2022/09/25 04:03:27;;;;;;;9.57;4.78;;;;;;;11.64;100.00;98514.25;4500312;31;20215;-84
2022/09/25 04:06:00;;;;;;;8.60;4.87;;;;;;;11.76;100.00;98503.53;4500412;31;20551;-83
2022/09/25 04:08:27;;;;;;;9.93;5.22;;;;;;;11.82;100.00;98505.53;4484783;31;20468;-84
2022/09/25 04:10:58;;;;;;;10.13;5.45;;;;;;;11.68;100.00;98507.72;4484538;32;20171;-84
2022/09/25 04:13:28;;;;;;;9.00;5.22;;;;;;;11.68;100.00;98506.91;4484804;31;20080;-84
2022/09/25 04:15:57;;;;;;;11.25;5.03;;;;;;;11.68;100.00;98499.03;4485098;32;20103;-83
2022/09/25 04:18:24;;;;;;;9.15;5.70;;;;;;;11.67;100.00;98494.75;4485020;31;20430;-84
2022/09/25 04:20:51;;;;;;;9.30;5.70;;;;;;;11.62;100.00;98492.56;4485024;31;20100;-83
2022/09/25 04:23:19;;;;;;;8.98;5.30;;;;;;;11.68;100.00;98489.34;4484879;31;20106;-83
2022/09/25 04:25:46;;;;;;;7.85;5.32;;;;;;;11.65;100.00;98492.28;4484881;31;20097;-83
2022/09/25 04:28:13;;;;;;;10.55;6.07;;;;;;;11.61;100.00;98484.84;4484792;31;20439;-83
2022/09/25 04:30:40;;;;;;;8.75;5.78;;;;;;;11.59;100.00;98490.25;4484854;31;20108;-84
2022/09/25 04:35:55;;;;;;;9.13;5.82;;;;;;;11.47;100.00;98487.03;4484874;32;20135;-84
2022/09/25 04:38:22;;;;;;;8.85;5.60;;;;;;;11.44;100.00;98484.72;4484787;31;20450;-84
2022/09/25 04:40:49;;;;;;;13.15;6.05;;;;;;;11.48;100.00;98487.88;4489387;31;20107;-84
2022/09/25 04:43:17;;;;;;;8.85;5.45;;;;;;;11.44;100.00;98484.72;4500492;31;20092;-83
2022/09/25 04:45:46;;;;;;;10.77;5.97;;;;;;;11.42;100.00;98488.47;4500412;31;20084;-83
2022/09/25 04:48:13;;;;;;;10.95;5.45;;;;;;;11.36;100.00;98495.12;4500586;31;20216;-83
2022/09/25 04:50:47;;;;;;;7.95;5.30;;;;;;;11.40;100.00;98500.91;4500680;31;20189;-84
2022/09/25 04:53:15;;;;;;;10.40;5.70;;;;;;;11.44;100.00;98499.63;4500319;31;20158;-83
2022/09/25 04:55:44;;;;;;;13.75;5.95;;;;;;;11.48;100.00;98504.44;4500155;31;20449;-83
2022/09/25 04:58:11;;;;;;;9.65;5.93;;;;;;;11.61;100.00;98501.44;4500079;31;20148;-83
2022/09/25 05:00:39;;;;;;;10.48;5.75;;;;;;;11.66;100.00;98509.69;4500426;31;20083;-84
2022/09/25 05:03:07;;;;;;;10.20;5.72;;;;;;;11.63;100.00;98496.03;4498949;31;20151;-83
2022/09/25 05:05:34;;;;;;;10.20;5.97;;;;;;;11.71;100.00;98503.97;4500681;31;20557;-83
2022/09/25 05:08:01;;;;;;;8.95;5.60;;;;;;;11.83;100.00;98507.19;4489208;31;20161;-83
2022/09/25 05:10:33;;;;;;;10.00;5.65;;;;;;;11.86;100.00;98497.22;4486158;31;20188;-83
2022/09/25 05:13:01;;;;;;;8.25;5.57;;;;;;;11.87;100.00;98493.63;4485093;32;20095;-84
2022/09/25 05:15:31;;;;;;;9.02;6.18;;;;;;;11.98;100.00;98491.75;4486533;31;20118;-83
2022/09/25 05:18:04;;;;;;;10.85;6.03;;;;;;;11.94;100.00;98495.66;4486120;31;20155;-84
2022/09/25 05:20:31;;;;;;;11.50;6.07;;;;;;;11.89;100.00;98501.34;4486516;31;20080;-83
2022/09/25 05:22:59;;;;;;;9.52;6.53;;;;;;;11.90;100.00;98495.12;4486193;31;20119;-83
2022/09/25 05:25:26;;;;;;;10.60;6.43;;;;;;;11.88;100.00;98499.69;4486314;31;20114;-83
2022/09/25 05:27:57;;;;;;;11.15;6.57;;;;;;;11.93;100.00;98499.25;4485883;31;20155;-83
2022/09/25 05:30:25;;;;;;;8.13;5.60;;;;;;;11.95;100.00;98495.50;4486219;31;20167;-83
2022/09/25 05:32:52;;;;;;;12.07;5.97;;;;;;;12.04;100.00;98504.28;4486125;31;20103;-83
2022/09/25 05:35:21;;;;;;;8.45;5.20;;;;;;;12.12;100.00;98506.13;4486047;31;20149;-84
2022/09/25 05:37:49;;;;;;;8.32;5.75;;;;;;;12.23;100.00;98504.09;4485904;31;20142;-83
2022/09/25 05:40:19;;;;;;;7.20;5.05;;;;;;;12.29;100.00;98509.69;4487167;31;20110;-83
2022/09/25 05:42:46;;;;;;;8.27;5.20;;;;;;;12.32;100.00;98512.00;4501987;31;20162;-83
2022/09/25 05:45:15;;;;;;;10.55;5.65;;;;;;;12.45;100.00;98511.59;4501806;31;20107;-83
2022/09/25 05:47:42;;;;;;;10.25;5.37;;;;;;;12.56;100.00;98520.03;4501752;31;20152;-84
2022/09/25 05:50:12;;;;;;;8.48;5.80;;;;;;;12.60;100.00;98524.00;4502187;31;20445;-83
2022/09/25 05:52:40;;;;;;;8.05;4.87;;;;;;;12.65;100.00;98522.72;4501826;31;20104;-83
2022/09/25 05:55:08;;;;;;;14.25;5.72;;;;;;;12.68;100.00;98520.59;4501849;31;20160;-83
2022/09/25 05:57:36;;;;;;;9.65;6.07;;;;;;;12.67;100.00;98516.31;4501715;31;20170;-83
2022/09/25 06:00:06;;;;;;;11.10;5.75;;;;;;;12.76;100.00;98520.63;4501778;31;20162;-83
2022/09/25 06:02:37;;;;;;;;;;;;;;;12.91;100.00;98523.50;4502209;31;20088;-84
2022/09/25 06:05:05;;;;;;;10.38;5.90;;;;;;;12.96;100.00;98525.66;4501520;31;20001;-83
2022/09/25 06:07:32;;;;;;;13.15;5.68;;;;;;;12.92;100.00;98527.75;4491901;31;20248;-83
2022/09/25 06:09:59;;;;;;;10.50;5.12;;;;;;;12.98;100.00;98528.13;4485654;31;20167;-83
2022/09/25 06:12:29;;;;;;;9.48;5.95;;;;;;;12.97;100.00;98529.91;4485753;31;20519;-82
2022/09/25 06:14:57;;;;;;;9.48;5.75;;;;;;;13.00;100.00;98541.94;4485962;31;20148;-84
2022/09/25 06:17:24;;;;;;;11.82;5.47;;;;;;;13.06;100.00;98547.38;4485379;32;20120;-83
2022/09/25 06:19:51;;;;;;;11.93;5.07;;;;;;;13.06;100.00;98544.72;4485876;31;20104;-84
2022/09/25 06:22:18;;;;;;;10.18;5.50;;;;;;;13.01;100.00;98549.66;4485800;31;20187;-83
2022/09/25 06:24:47;;;;;;;11.98;5.22;;;;;;;13.00;100.00;98544.56;4485643;31;20140;-83
2022/09/25 06:27:14;;;;;;;8.93;5.18;;;;;;;13.17;100.00;98542.81;4485606;31;20608;-83
2022/09/25 06:29:41;;;;;;;10.30;5.70;;;;;;;13.08;100.00;98541.94;4485744;32;20157;-83
2022/09/25 06:32:08;;;;;;;7.68;5.47;;;;;;;13.23;100.00;98540.38;4485755;31;20095;-83
2022/09/25 06:34:36;;;;;;;10.30;6.18;;;;;;;13.19;100.00;98546.13;4485762;31;20097;-83
2022/09/25 06:37:03;;;;;;;8.50;5.82;;;;;;;13.22;100.00;98546.63;4485423;31;20105;-83
2022/09/25 06:39:32;;;;;;;13.13;5.57;;;;;;;13.24;100.00;98544.63;4485597;31;20088;-83
2022/09/25 06:41:59;;;;;;;12.98;5.53;;;;;;;13.25;100.00;98550.75;4497933;31;20160;-83
2022/09/25 06:44:27;;;;;;;8.05;5.50;;;;;;;13.34;100.00;98548.97;4501311;31;20080;-83
2022/09/25 06:46:54;;;;;;;9.93;5.07;;;;;;;13.56;100.00;98547.56;4501447;31;20104;-83
2022/09/25 06:49:21;;;;;;;14.00;6.05;;;;;;;13.79;100.00;98551.22;4501319;31;20123;-84
2022/09/25 06:51:50;;;;;;;10.00;5.53;;;;;;;14.05;100.00;98552.03;4501529;31;20103;-84
2022/09/25 06:54:17;;;;;;;10.90;5.03;;;;;;;14.19;99.05;98556.66;4501355;31;20096;-84
2022/09/25 06:56:48;;;;;;;10.00;5.62;;;;;;;14.28;98.42;98555.66;4501435;31;20473;-84
2022/09/25 06:59:16;;;;;;;16.52;4.97;;;;;;;14.42;98.62;98561.25;4501351;31;20068;-84
2022/09/25 07:01:43;;;;;;;8.48;5.03;;;;;;;14.57;98.98;98562.22;4501445;31;20092;-83
2022/09/25 07:04:10;;;;;;;9.48;5.47;;;;;;;14.66;97.85;98561.22;4501439;31;20098;-84
2022/09/25 07:06:37;;;;;;;6.45;4.93;;;;;;;14.69;96.91;98555.63;4496670;31;20100;-83
2022/09/25 07:09:05;;;;;;;9.40;5.10;;;;;;;14.82;95.46;98554.25;4485231;31;20118;-83
2022/09/25 07:11:32;;;;;;;7.55;4.32;;;;;;;14.83;95.15;98550.63;4485481;31;20122;-83
2022/09/25 07:13:59;;;;;;;7.05;3.97;;;;;;;14.80;94.69;98553.63;4485486;31;20138;-83
2022/09/25 07:16:28;;;;;;;6.45;3.87;;;;;;;15.00;92.76;98544.28;4485529;31;20494;-83
2022/09/25 07:19:01;;;;;;;9.30;3.90;;;;;;;15.15;91.93;98546.22;4485349;31;20146;-83
2022/09/25 07:21:30;;;;;;;5.45;3.80;;;;;;;15.32;92.85;98545.16;4485488;31;20477;-83
2022/09/25 07:23:58;;;;;;;5.85;3.92;;;;;;;15.52;91.19;98545.53;4485394;31;20149;-83
2022/09/25 07:26:27;;;;;;;4.65;3.10;;;;;;;15.68;90.70;98555.16;4485201;31;20105;-83
2022/09/25 07:29:00;;;;;;;4.93;2.87;;;;;;;15.84;88.60;98548.19;4484424;31;20100;-83
2022/09/25 07:31:29;;;;;;;5.55;2.62;;;;;;;15.93;84.90;98547.13;4485318;31;20100;-83
2022/09/25 07:33:58;;;;;;;7.60;2.50;;;;;;;16.22;82.18;98546.38;4485394;31;20541;-83
2022/09/25 07:36:25;;;;;;;5.50;2.80;;;;;;;16.27;83.13;98537.91;4483954;32;20100;-83
2022/09/25 07:38:52;;;;;;;5.45;3.10;;;;;;;16.30;85.56;98538.34;4485148;31;20119;-82
2022/09/25 07:41:23;;;;;;;4.40;2.37;;;;;;;16.39;83.58;98547.03;4485088;31;20100;-83
2022/09/25 07:43:57;;;;;;;4.07;2.67;;;;;;;16.38;78.23;98544.56;4485156;31;20426;-83
2022/09/25 07:46:44;;;;;;;7.90;2.58;;;;;;;16.36;83.85;98543.94;4485207;31;20535;-83
2022/09/25 07:49:12;;;;;;;3.30;2.33;;;;;;;16.32;81.67;98532.88;4485020;32;20114;-83
2022/09/25 07:51:39;;;;;;;4.00;2.60;;;;;;;16.30;78.85;98537.53;4485085;31;20498;-83
2022/09/25 07:54:07;;;;;;;5.22;2.50;;;;;;;16.20;80.11;98523.75;4485425;31;20156;-83
2022/09/25 07:56:36;;;;;;;4.12;2.75;;;;;;;16.10;79.89;98524.81;4485238;31;20124;-83
2022/09/25 07:59:03;;;;;;;4.45;2.72;;;;;;;16.06;80.58;98520.88;4485030;31;20119;-83
2022/09/25 08:01:31;;;;;;;3.70;2.80;;;;;;;15.92;80.80;98526.97;4485233;32;20448;-83
2022/09/25 08:03:58;;;;;;;4.65;3.22;;;;;;;15.90;82.99;98526.34;4484956;32;20127;-83
2022/09/25 08:06:25;;;;;;;7.65;3.58;;;;;;;15.69;85.66;98529.59;4487196;31;20427;-83
2022/09/25 08:08:52;;;;;;;6.60;3.28;;;;;;;15.66;84.56;98522.84;4500722;31;20091;-83
2022/09/25 08:11:22;;;;;;;4.90;3.17;;;;;;;15.60;86.78;98523.53;4500829;31;20087;-83
2022/09/25 08:13:49;;;;;;;4.57;2.87;;;;;;;15.64;85.67;98518.72;4500819;31;20112;-84
2022/09/25 08:16:17;;;;;;;4.62;2.97;;;;;;;15.63;86.87;98522.37;4500841;31;20592;-83
2022/09/25 08:18:46;;;;;;;3.20;2.62;;;;;;;15.63;85.59;98523.19;4500764;31;20108;-83
2022/09/25 08:21:15;;;;;;;4.20;2.53;;;;;;;15.78;84.24;98521.44;4500737;31;20076;-83
2022/09/25 08:23:44;;;;;;;4.93;2.37;;;;;;;15.70;86.19;98525.94;4500737;31;20092;-83
2022/09/25 08:26:15;;;;;;;4.03;2.40;;;;;;;15.67;84.03;98535.06;4500647;31;20134;-83
2022/09/25 08:28:43;;;;;;;2.95;1.70;;;;;;;15.67;84.12;98536.84;4500649;31;20175;-83
2022/09/25 08:31:10;;;;;;;3.70;1.65;;;;;;;15.64;82.85;98540.69;4500569;31;20276;-83
2022/09/25 08:33:39;;;;;;;4.80;1.90;;;;;;;15.72;82.17;98539.81;4500762;31;20112;-83
2022/09/25 08:36:06;;;;;;;3.90;2.00;;;;;;;15.70;83.62;98545.25;4500577;31;20096;-83
2022/09/25 08:38:33;;;;;;;3.30;1.42;;;;;;;15.74;84.87;98538.59;4500560;31;20601;-83
2022/09/25 08:41:12;;;;;;;3.15;1.75;;;;;;;15.93;82.96;98542.63;4494005;31;20107;-83
2022/09/25 08:43:59;;;;;;;3.17;1.60;;;;;;;15.98;81.70;98533.38;4483546;32;20528;-83
2022/09/25 08:49:28;;;;;;;3.15;1.70;;;;;;;15.92;80.98;98525.13;4484762;32;20529;-83
2022/09/25 08:52:01;;;;;;;2.12;1.45;;;;;;;15.98;81.02;98526.25;4484583;32;20583;-83
2022/09/25 08:54:30;;;;;;;1.70;1.30;;;;;;;15.96;81.65;98530.91;4483452;32;20123;-83
2022/09/25 08:57:03;;;;;;;2.97;1.65;;;;;;;15.96;81.26;98531.72;4484586;32;20100;-83
2022/09/25 08:59:37;;;;;;;2.33;1.50;;;;;;;15.97;81.23;98524.59;4483427;32;20159;-83
2022/09/25 09:02:31;;;;;;;2.03;1.30;;;;;;;15.96;82.61;98536.19;4483257;32;20114;-83
2022/09/25 09:05:00;;;;;;;2.55;1.83;;;;;;;15.84;81.79;98527.03;4483090;32;20110;-83
2022/09/25 09:07:38;;;;;;;2.33;1.35;;;;;;;15.67;81.66;98536.84;4482964;32;20476;-83
2022/09/25 09:10:16;;;;;;;2.33;1.60;;;;;;;15.50;83.76;98542.22;4483170;32;20105;-83
2022/09/25 09:13:05;;;;;;;2.80;1.48;;;;;;;15.51;83.83;98545.72;4484497;31;20104;-83
2022/09/25 09:15:59;;;;;;;3.37;1.40;;;;;;;15.34;83.89;98547.63;4483361;32;20864;-83
2022/09/25 09:18:29;;;;;;;2.10;1.45;;;;;;;15.21;84.41;98549.00;4484546;31;20081;-83
2022/09/25 09:20:58;;;;;;;1.58;1.20;;;;;;;15.24;85.20;98543.38;4484377;31;20085;-83
2022/09/25 09:24:03;;;;;;;3.00;1.40;;;;;;;15.14;85.01;98548.06;4484279;31;20507;-83
2022/09/25 09:27:06;;;;;;;2.40;1.50;;;;;;;15.14;84.50;98548.06;4450293;32;20478;-83
2022/09/25 09:29:55;;;;;;;2.62;1.50;;;;;;;15.05;86.09;98554.34;4450624;32;20132;-83
2022/09/25 09:32:53;;;;;;;3.15;1.40;;;;;;;15.05;88.10;98555.16;4450437;32;20158;-83
2022/09/25 09:35:23;;;;;;;;;;;;;;;15.07;90.41;98550.53;4450702;32;20161;-82
2022/09/25 09:38:33;;;;;;;3.65;1.45;;;;;;;15.04;92.55;98552.72;4450329;32;20330;-83
2022/09/25 09:41:25;;;;;;;8.13;1.55;;;;;;;15.20;93.84;98554.44;4450233;32;20556;-83
2022/09/25 09:44:05;;;;;;;2.05;1.27;;;;;;;15.20;95.37;98547.38;4450357;32;20545;-83
2022/09/25 09:46:44;;;;;;;2.15;1.30;;;;;;;15.30;93.67;98551.59;4437660;32;20186;-83
2022/09/25 09:49:28;;;;;;;2.67;1.52;;;;;;;15.39;92.38;98542.63;4450299;32;20192;-83
2022/09/25 09:52:09;;;;;;;1.58;1.17;;;;;;;15.33;94.52;98546.78;4451067;32;20097;-83
2022/09/25 09:54:47;;;;;;;3.50;1.40;;;;;;;15.47;93.14;98541.78;4439659;32;20714;-83
2022/09/25 09:57:19;;;;;;;3.35;1.48;;;;;;;15.41;94.76;98536.19;4439472;32;20513;-82
2022/09/25 10:00:05;;;;;;;2.37;1.42;;;;;;;15.47;92.79;98537.31;4439634;32;20152;-83
2022/09/25 10:02:40;;;;;;;1.73;1.35;;;;;;;15.46;94.10;98534.84;4452379;31;20104;-83
2022/09/25 10:05:23;;;;;;;5.22;1.92;;;;;;;15.44;95.26;98535.84;4500449;31;20112;-83
2022/09/25 10:07:51;;;;;;;2.43;1.80;;;;;;;15.44;97.82;98535.00;4490150;31;20151;-83
2022/09/25 10:10:19;;;;;;;3.33;1.60;;;;;;;15.58;98.43;98528.19;4485915;31;20156;-82
2022/09/25 10:12:49;;;;;;;4.15;1.62;;;;;;;15.41;96.68;98538.84;4484640;32;20104;-82
2022/09/25 10:15:31;;;;;;;4.25;1.65;;;;;;;15.43;96.69;98539.47;4486255;31;20084;-83
2022/09/25 10:18:01;;;;;;;2.15;1.55;;;;;;;15.40;96.85;98537.19;4484557;32;20171;-83
2022/09/25 10:20:56;;;;;;;3.10;1.77;;;;;;;15.36;97.15;98541.16;4485953;31;20230;-82
2022/09/25 10:23:31;;;;;;;2.72;1.70;;;;;;;15.42;96.93;98545.75;4423870;32;20094;-82
2022/09/25 10:25:58;;;;;;;1.90;1.42;;;;;;;15.24;98.58;98547.81;4423964;32;20503;-82
2022/09/25 10:28:35;;;;;;;3.42;1.70;;;;;;;15.25;99.28;98549.47;4436290;32;20657;-83
2022/09/25 10:31:04;;;;;;;3.00;1.98;;;;;;;15.32;97.54;98545.16;4436694;32;20263;-83
2022/09/25 10:33:32;;;;;;;2.58;1.42;;;;;;;15.24;98.47;98547.81;4436468;32;20165;-83
2022/09/25 10:35:59;;;;;;;2.85;1.83;;;;;;;15.17;98.96;98538.94;4436661;32;20360;-83
2022/09/25 10:38:26;;;;;;;4.93;1.75;;;;;;;15.04;98.17;98536.88;4436385;32;20089;-83
2022/09/25 10:41:11;;;;;;;1.83;1.40;;;;;;;15.19;98.49;98531.69;4441424;32;20530;-83
2022/09/25 10:43:55;;;;;;;3.55;2.15;;;;;;;15.24;99.23;98535.44;4439169;32;20431;-83
2022/09/25 10:52:11;;;;;;;3.70;1.90;;;;;;;15.63;98.00;98520.53;4451865;32;20162;-82
2022/09/25 10:54:38;;;;;;;3.12;2.25;;;;;;;15.74;98.70;98525.41;4451791;32;20161;-83
2022/09/25 10:57:37;;;;;;;5.13;2.20;;;;;;;15.87;96.43;98521.41;4452150;32;20603;-83
2022/09/25 11:00:18;;;;;;;3.28;2.30;;;;;;;15.85;96.08;98518.09;4468627;31;20091;-83
2022/09/25 11:02:47;;;;;;;3.25;1.98;;;;;;;16.00;94.67;98508.41;4500359;31;20084;-83
2022/09/25 11:05:17;;;;;;;4.03;1.95;;;;;;;16.09;92.56;98506.50;4501298;31;20100;-82
2022/09/25 11:07:54;;;;;;;3.40;2.00;;;;;;;16.19;91.51;98503.62;4490343;31;20119;-83
2022/09/25 11:10:25;;;;;;;2.90;2.12;;;;;;;16.32;92.08;98495.88;4484087;32;20134;-82
2022/09/25 11:12:53;;;;;;;4.40;2.33;;;;;;;16.20;89.22;98500.81;4485428;31;20099;-82
2022/09/25 11:15:22;;;;;;;4.43;2.05;;;;;;;16.14;90.11;98506.81;4484266;32;20126;-83
2022/09/25 11:17:53;;;;;;;3.42;2.25;;;;;;;15.76;91.91;98506.75;4485556;31;20084;-83
2022/09/25 11:20:28;;;;;;;2.83;1.80;;;;;;;15.75;92.84;98507.75;4484064;32;20164;-83
2022/09/25 11:23:07;;;;;;;2.97;1.90;;;;;;;15.67;93.64;98499.87;4485492;31;20202;-82
2022/09/25 11:25:52;;;;;;;3.35;2.17;;;;;;;15.49;94.10;98505.44;4485562;31;20112;-83
2022/09/25 11:28:34;;;;;;;3.78;1.87;;;;;;;15.15;96.98;98502.19;4485477;31;20108;-82
2022/09/25 11:31:20;;;;;;;3.55;1.80;;;;;;;14.98;100.00;98506.72;4484345;32;20110;-82
2022/09/25 11:34:25;;;;;;;3.20;1.83;;;;;;;14.68;100.00;98508.31;4484020;32;20076;-82
2022/09/25 11:37:18;;;;;;;3.10;1.80;;;;;;;14.66;100.00;98510.31;4485422;32;20462;-83
2022/09/25 11:42:58;;;;;;;5.28;1.87;;;;;;;14.83;100.00;98508.44;4436175;32;20163;-82
2022/09/25 11:45:35;;;;;;;4.47;2.08;;;;;;;14.78;100.00;98500.22;4423481;32;20498;-82
2022/09/25 11:48:29;;;;;;;3.45;1.87;;;;;;;14.65;100.00;98498.94;4424293;32;20491;-82
2022/09/25 11:51:18;;;;;;;4.00;1.90;;;;;;;14.68;100.00;98501.22;4345513;33;20096;-82
2022/09/25 11:54:07;;;;;;;2.72;2.17;;;;;;;14.59;100.00;98504.84;4345269;33;20149;-82
2022/09/25 11:57:41;;;;;;;3.28;2.42;;;;;;;14.52;100.00;98502.09;4345245;33;20122;-82
2022/09/25 12:00:18;;;;;;;3.33;2.28;;;;;;;14.49;100.00;98501.59;4272557;33;20112;-83
2022/09/25 12:03:31;;;;;;;2.97;2.33;;;;;;;14.50;100.00;98490.06;4272551;33;20192;-82
2022/09/25 12:06:47;;;;;;;3.05;2.30;;;;;;;14.58;100.00;98482.13;4273435;33;20108;-82
2022/09/25 12:10:03;;;;;;;2.53;1.87;;;;;;;14.72;100.00;98481.44;4286629;33;20105;-83
2022/09/25 12:13:29;;;;;;;2.35;1.73;;;;;;;14.80;100.00;98490.31;4287009;33;20550;-82
2022/09/25 12:16:17;;;;;;;2.12;1.77;;;;;;;14.80;100.00;98488.50;4240144;33;20142;-82
2022/09/25 12:19:05;;;;;;;4.90;2.55;;;;;;;14.81;100.00;98489.34;4316002;33;20096;-82